sensor_id;sensor_type;location;lat;lon;timestamp;pressure;altitude;pressure_sealevel;temperature;humidity
39789;BME280;25478;42.626;23.320;2022-08-25T00:00:52;93064.09;;;18.14;100.00
39789;BME280;25478;42.626;23.320;2022-08-25T00:03:24;93074.88;;;18.23;100.00
39789;BME280;25478;42.626;23.320;2022-08-25T00:05:56;93072.56;;;18.25;100.00
39789;BME280;25478;42.626;23.320;2022-08-25T00:08:28;93071.41;;;18.26;100.00
39789;BME280;25478;42.626;23.320;2022-08-25T00:11:00;93074.38;;;18.28;100.00
39789;BME280;25478;42.626;23.320;2022-08-25T00:13:33;93062.75;;;18.22;100.00
39789;BME280;25478;42.626;23.320;2022-08-25T00:16:16;93063.22;;;18.34;100.00
39789;BME280;25478;42.626;23.320;2022-08-25T00:18:50;93064.91;;;18.27;100.00
39789;BME280;25478;42.626;23.320;2022-08-25T00:21:24;93064.72;;;18.35;100.00
39789;BME280;25478;42.626;23.320;2022-08-25T00:23:57;93057.97;;;18.30;100.00
39789;BME280;25478;42.626;23.320;2022-08-25T00:26:29;93066.53;;;18.38;100.00
39789;BME280;25478;42.626;23.320;2022-08-25T00:29:02;93063.34;;;18.43;100.00
39789;BME280;25478;42.626;23.320;2022-08-25T00:31:34;93053.00;;;18.45;100.00
39789;BME280;25478;42.626;23.320;2022-08-25T00:34:10;93048.41;;;18.45;100.00
39789;BME280;25478;42.626;23.320;2022-08-25T00:36:43;93034.00;;;18.30;100.00
39789;BME280;25478;42.626;23.320;2022-08-25T00:39:17;93065.25;;;18.42;100.00
39789;BME280;25478;42.626;23.320;2022-08-25T00:41:45;93067.19;;;18.42;100.00
39789;BME280;25478;42.626;23.320;2022-08-25T00:44:19;93064.16;;;18.40;100.00
39789;BME280;25478;42.626;23.320;2022-08-25T00:46:55;93059.69;;;18.37;100.00
39789;BME280;25478;42.626;23.320;2022-08-25T00:49:41;93074.94;;;18.36;100.00
39789;BME280;25478;42.626;23.320;2022-08-25T00:52:38;93074.28;;;18.32;100.00
39789;BME280;25478;42.626;23.320;2022-08-25T00:55:22;93078.13;;;18.31;100.00
39789;BME280;25478;42.626;23.320;2022-08-25T00:58:01;93072.03;;;18.31;100.00
39789;BME280;25478;42.626;23.320;2022-08-25T01:00:41;93062.69;;;18.39;100.00
39789;BME280;25478;42.626;23.320;2022-08-25T01:03:13;93055.66;;;18.45;100.00
39789;BME280;25478;42.626;23.320;2022-08-25T01:05:46;93054.06;;;18.47;100.00
39789;BME280;25478;42.626;23.320;2022-08-25T01:08:20;93056.72;;;18.47;100.00
39789;BME280;25478;42.626;23.320;2022-08-25T01:10:55;93053.97;;;18.51;100.00
39789;BME280;25478;42.626;23.320;2022-08-25T01:13:42;93042.13;;;18.52;100.00
39789;BME280;25478;42.626;23.320;2022-08-25T01:16:16;93024.94;;;18.40;100.00
39789;BME280;25478;42.626;23.320;2022-08-25T01:18:51;93026.66;;;18.47;100.00
39789;BME280;25478;42.626;23.320;2022-08-25T01:21:26;93030.09;;;18.60;100.00
39789;BME280;25478;42.626;23.320;2022-08-25T01:23:59;93031.59;;;18.61;100.00
39789;BME280;25478;42.626;23.320;2022-08-25T01:26:33;93034.91;;;18.65;100.00
39789;BME280;25478;42.626;23.320;2022-08-25T01:29:08;93028.75;;;18.68;100.00
39789;BME280;25478;42.626;23.320;2022-08-25T01:31:56;93027.91;;;18.71;100.00
39789;BME280;25478;42.626;23.320;2022-08-25T01:34:32;93039.63;;;18.74;100.00
39789;BME280;25478;42.626;23.320;2022-08-25T01:37:04;93039.22;;;18.75;100.00
39789;BME280;25478;42.626;23.320;2022-08-25T01:39:30;93040.59;;;18.80;100.00
39789;BME280;25478;42.626;23.320;2022-08-25T01:42:23;93043.16;;;18.83;100.00
39789;BME280;25478;42.626;23.320;2022-08-25T01:44:59;93033.88;;;18.88;100.00
39789;BME280;25478;42.626;23.320;2022-08-25T01:47:31;93041.75;;;18.92;100.00
39789;BME280;25478;42.626;23.320;2022-08-25T01:50:05;93043.91;;;18.97;100.00
39789;BME280;25478;42.626;23.320;2022-08-25T01:55:18;93025.00;;;18.91;100.00
39789;BME280;25478;42.626;23.320;2022-08-25T01:57:50;93040.16;;;19.07;100.00
39789;BME280;25478;42.626;23.320;2022-08-25T02:00:22;93033.22;;;19.09;100.00
39789;BME280;25478;42.626;23.320;2022-08-25T02:02:55;93020.22;;;19.11;100.00
39789;BME280;25478;42.626;23.320;2022-08-25T02:05:28;93019.03;;;19.12;100.00
39789;BME280;25478;42.626;23.320;2022-08-25T02:08:00;93019.78;;;19.13;100.00
39789;BME280;25478;42.626;23.320;2022-08-25T02:10:32;93022.44;;;19.13;100.00
39789;BME280;25478;42.626;23.320;2022-08-25T02:12:58;93013.38;;;19.10;100.00
39789;BME280;25478;42.626;23.320;2022-08-25T02:15:31;93020.09;;;19.15;100.00
39789;BME280;25478;42.626;23.320;2022-08-25T02:18:04;93019.66;;;19.17;100.00
39789;BME280;25478;42.626;23.320;2022-08-25T02:20:36;93008.56;;;19.18;100.00
39789;BME280;25478;42.626;23.320;2022-08-25T02:23:09;93010.81;;;19.20;100.00
39789;BME280;25478;42.626;23.320;2022-08-25T02:25:41;93017.94;;;19.23;100.00
39789;BME280;25478;42.626;23.320;2022-08-25T02:28:08;93010.69;;;19.23;99.89
39789;BME280;25478;42.626;23.320;2022-08-25T02:30:41;93001.94;;;19.23;99.80
39789;BME280;25478;42.626;23.320;2022-08-25T02:33:07;93003.84;;;19.22;99.73
39789;BME280;25478;42.626;23.320;2022-08-25T02:35:39;93004.16;;;19.24;99.45
39789;BME280;25478;42.626;23.320;2022-08-25T02:38:11;93007.16;;;19.26;98.96
39789;BME280;25478;42.626;23.320;2022-08-25T02:40:43;93010.59;;;19.27;98.58
39789;BME280;25478;42.626;23.320;2022-08-25T02:43:15;93010.16;;;19.28;98.31
39789;BME280;25478;42.626;23.320;2022-08-25T02:45:47;93011.63;;;19.29;98.12
39789;BME280;25478;42.626;23.320;2022-08-25T02:48:19;93011.19;;;19.31;98.35
39789;BME280;25478;42.626;23.320;2022-08-25T02:50:59;93003.09;;;19.34;97.87
39789;BME280;25478;42.626;23.320;2022-08-25T02:53:32;93004.59;;;19.35;98.09
39789;BME280;25478;42.626;23.320;2022-08-25T02:56:08;93014.09;;;19.36;98.21
39789;BME280;25478;42.626;23.320;2022-08-25T02:58:41;93013.78;;;19.34;98.23
39789;BME280;25478;42.626;23.320;2022-08-25T03:01:08;93007.38;;;19.19;98.71
39789;BME280;25478;42.626;23.320;2022-08-25T03:03:44;93013.56;;;19.16;98.77
39789;BME280;25478;42.626;23.320;2022-08-25T03:06:19;93019.56;;;19.07;99.02
39789;BME280;25478;42.626;23.320;2022-08-25T03:08:53;93023.09;;;19.04;99.42
39789;BME280;25478;42.626;23.320;2022-08-25T03:11:26;93023.97;;;19.01;99.84
39789;BME280;25478;42.626;23.320;2022-08-25T03:13:58;93028.94;;;18.99;100.00
39789;BME280;25478;42.626;23.320;2022-08-25T03:16:30;93024.03;;;18.98;100.00
39789;BME280;25478;42.626;23.320;2022-08-25T03:19:03;93022.69;;;18.93;100.00
39789;BME280;25478;42.626;23.320;2022-08-25T03:21:35;93023.63;;;18.87;100.00
39789;BME280;25478;42.626;23.320;2022-08-25T03:24:08;93019.16;;;18.83;100.00
39789;BME280;25478;42.626;23.320;2022-08-25T03:26:40;93016.59;;;18.80;100.00
39789;BME280;25478;42.626;23.320;2022-08-25T03:29:27;92997.25;;;18.63;100.00
39789;BME280;25478;42.626;23.320;2022-08-25T03:31:59;93017.00;;;18.66;100.00
39789;BME280;25478;42.626;23.320;2022-08-25T03:34:32;93027.47;;;18.73;100.00
39789;BME280;25478;42.626;23.320;2022-08-25T03:37:04;93027.03;;;18.74;100.00
39789;BME280;25478;42.626;23.320;2022-08-25T03:39:37;93022.88;;;18.73;100.00
39789;BME280;25478;42.626;23.320;2022-08-25T03:42:09;93022.13;;;18.73;100.00
39789;BME280;25478;42.626;23.320;2022-08-25T03:44:43;93020.50;;;18.63;100.00
39789;BME280;25478;42.626;23.320;2022-08-25T03:47:15;93022.75;;;18.64;100.00
39789;BME280;25478;42.626;23.320;2022-08-25T03:49:47;93018.53;;;18.67;100.00
39789;BME280;25478;42.626;23.320;2022-08-25T03:52:19;93018.53;;;18.67;100.00
39789;BME280;25478;42.626;23.320;2022-08-25T03:54:58;93011.59;;;18.69;100.00
39789;BME280;25478;42.626;23.320;2022-08-25T03:57:30;93010.41;;;18.70;100.00
39789;BME280;25478;42.626;23.320;2022-08-25T04:00:04;92991.28;;;18.59;100.00
39789;BME280;25478;42.626;23.320;2022-08-25T04:02:37;92989.16;;;18.54;100.00
39789;BME280;25478;42.626;23.320;2022-08-25T04:05:10;93012.63;;;18.72;100.00
39789;BME280;25478;42.626;23.320;2022-08-25T04:07:42;93007.00;;;18.70;100.00
39789;BME280;25478;42.626;23.320;2022-08-25T04:10:14;93005.28;;;18.76;100.00
39789;BME280;25478;42.626;23.320;2022-08-25T04:12:39;93005.69;;;18.74;100.00
39789;BME280;25478;42.626;23.320;2022-08-25T04:15:12;93018.81;;;18.81;100.00
39789;BME280;25478;42.626;23.320;2022-08-25T04:17:44;93013.50;;;18.81;100.00
39789;BME280;25478;42.626;23.320;2022-08-25T04:20:16;93014.22;;;18.82;100.00
39789;BME280;25478;42.626;23.320;2022-08-25T04:22:48;93014.16;;;18.86;100.00
39789;BME280;25478;42.626;23.320;2022-08-25T04:25:20;93007.19;;;18.88;100.00
39789;BME280;25478;42.626;23.320;2022-08-25T04:27:45;93001.00;;;18.91;100.00
39789;BME280;25478;42.626;23.320;2022-08-25T04:30:17;93007.00;;;18.95;100.00
39789;BME280;25478;42.626;23.320;2022-08-25T04:32:42;93006.13;;;18.98;100.00
39789;BME280;25478;42.626;23.320;2022-08-25T04:35:15;93012.84;;;19.03;100.00
39789;BME280;25478;42.626;23.320;2022-08-25T04:37:47;93007.72;;;19.08;100.00
39789;BME280;25478;42.626;23.320;2022-08-25T04:40:19;93005.38;;;19.10;100.00
39789;BME280;25478;42.626;23.320;2022-08-25T04:42:51;93008.97;;;19.17;100.00
39789;BME280;25478;42.626;23.320;2022-08-25T04:45:23;93009.94;;;19.23;100.00
39789;BME280;25478;42.626;23.320;2022-08-25T04:47:48;93012.50;;;19.26;100.00
39789;BME280;25478;42.626;23.320;2022-08-25T04:50:28;93012.25;;;19.33;100.00
39789;BME280;25478;42.626;23.320;2022-08-25T04:53:00;92998.72;;;19.28;99.92
39789;BME280;25478;42.626;23.320;2022-08-25T04:55:25;93004.59;;;19.35;99.33
39789;BME280;25478;42.626;23.320;2022-08-25T04:57:58;93024.94;;;19.55;99.21
39789;BME280;25478;42.626;23.320;2022-08-25T05:00:30;93026.22;;;19.63;98.92
39789;BME280;25478;42.626;23.320;2022-08-25T05:03:03;93031.94;;;19.74;98.32
39789;BME280;25478;42.626;23.320;2022-08-25T05:05:36;93012.94;;;19.72;97.34
39789;BME280;25478;42.626;23.320;2022-08-25T05:08:09;93024.63;;;19.87;96.78
39789;BME280;25478;42.626;23.320;2022-08-25T05:10:39;92977.09;;;19.60;95.99
39789;BME280;25478;42.626;23.320;2022-08-25T05:13:11;93028.88;;;19.98;96.32
39789;BME280;25478;42.626;23.320;2022-08-25T05:15:51;93020.75;;;20.01;95.52
39789;BME280;25478;42.626;23.320;2022-08-25T05:18:25;93022.34;;;19.99;95.29
39789;BME280;25478;42.626;23.320;2022-08-25T05:21:06;93017.28;;;20.01;95.05
39789;BME280;25478;42.626;23.320;2022-08-25T05:23:39;93025.50;;;20.06;95.19
39789;BME280;25478;42.626;23.320;2022-08-25T05:26:18;93010.41;;;20.12;95.11
39789;BME280;25478;42.626;23.320;2022-08-25T05:28:53;93001.72;;;20.21;95.19
39789;BME280;25478;42.626;23.320;2022-08-25T05:31:26;93005.03;;;20.34;94.76
39789;BME280;25478;42.626;23.320;2022-08-25T05:33:58;93007.69;;;20.47;94.07
39789;BME280;25478;42.626;23.320;2022-08-25T05:36:31;93001.38;;;20.63;92.98
39789;BME280;25478;42.626;23.320;2022-08-25T05:39:04;92999.66;;;20.78;91.78
39789;BME280;25478;42.626;23.320;2022-08-25T05:41:36;93010.13;;;20.94;90.95
39789;BME280;25478;42.626;23.320;2022-08-25T05:44:09;93011.00;;;21.00;89.87
39789;BME280;25478;42.626;23.320;2022-08-25T05:46:41;93023.66;;;21.00;89.50
39789;BME280;25478;42.626;23.320;2022-08-25T05:49:13;93016.06;;;20.98;88.63
39789;BME280;25478;42.626;23.320;2022-08-25T05:51:59;93021.41;;;20.98;88.39
39789;BME280;25478;42.626;23.320;2022-08-25T05:54:31;93023.81;;;21.05;88.19
39789;BME280;25478;42.626;23.320;2022-08-25T05:57:03;93013.88;;;21.15;88.05
39789;BME280;25478;42.626;23.320;2022-08-25T05:59:35;93020.66;;;21.29;88.14
39789;BME280;25478;42.626;23.320;2022-08-25T06:02:07;93020.53;;;21.42;86.83
39789;BME280;25478;42.626;23.320;2022-08-25T06:04:58;93020.69;;;21.56;85.39
39789;BME280;25478;42.626;23.320;2022-08-25T06:07:30;93018.66;;;21.70;84.01
39789;BME280;25478;42.626;23.320;2022-08-25T06:10:04;92994.94;;;21.68;83.63
39789;BME280;25478;42.626;23.320;2022-08-25T06:12:38;93012.53;;;21.87;83.49
39789;BME280;25478;42.626;23.320;2022-08-25T06:15:04;93008.06;;;21.93;83.32
39789;BME280;25478;42.626;23.320;2022-08-25T06:17:36;93017.00;;;22.00;82.65
39789;BME280;25478;42.626;23.320;2022-08-25T06:20:23;93013.28;;;22.06;82.66
39789;BME280;25478;42.626;23.320;2022-08-25T06:22:55;93017.16;;;22.14;83.23
39789;BME280;25478;42.626;23.320;2022-08-25T06:25:28;93022.34;;;22.36;80.82
39789;BME280;25478;42.626;23.320;2022-08-25T06:28:03;93011.91;;;22.47;79.57
39789;BME280;25478;42.626;23.320;2022-08-25T06:30:35;92994.91;;;22.41;79.12
39789;BME280;25478;42.626;23.320;2022-08-25T06:33:08;93014.34;;;22.69;77.77
39789;BME280;25478;42.626;23.320;2022-08-25T06:35:41;93014.78;;;22.86;76.59
39789;BME280;25478;42.626;23.320;2022-08-25T06:38:14;92999.09;;;22.94;76.03
39789;BME280;25478;42.626;23.320;2022-08-25T06:40:47;93008.44;;;23.08;73.60
39789;BME280;25478;42.626;23.320;2022-08-25T06:43:19;92993.41;;;23.01;73.14
39789;BME280;25478;42.626;23.320;2022-08-25T06:45:52;93011.75;;;23.26;72.05
39789;BME280;25478;42.626;23.320;2022-08-25T06:48:24;93015.72;;;23.40;71.73
39789;BME280;25478;42.626;23.320;2022-08-25T06:50:56;93023.72;;;23.49;71.60
39789;BME280;25478;42.626;23.320;2022-08-25T06:53:35;93024.25;;;23.63;70.42
39789;BME280;25478;42.626;23.320;2022-08-25T06:56:08;93025.41;;;23.71;70.77
39789;BME280;25478;42.626;23.320;2022-08-25T06:58:41;93021.69;;;23.68;70.63
39789;BME280;25478;42.626;23.320;2022-08-25T07:01:08;93023.75;;;23.73;71.25
39789;BME280;25478;42.626;23.320;2022-08-25T07:03:42;93017.66;;;23.87;70.40
39789;BME280;25478;42.626;23.320;2022-08-25T07:06:08;93011.66;;;23.93;69.89
39789;BME280;25478;42.626;23.320;2022-08-25T07:08:40;93012.59;;;24.04;69.53
39789;BME280;25478;42.626;23.320;2022-08-25T07:11:13;93009.28;;;24.09;67.35
39789;BME280;25478;42.626;23.320;2022-08-25T07:13:45;93010.75;;;24.10;67.69
39789;BME280;25478;42.626;23.320;2022-08-25T07:16:18;93007.47;;;24.30;67.18
39789;BME280;25478;42.626;23.320;2022-08-25T07:18:51;93018.06;;;24.49;66.35
39789;BME280;25478;42.626;23.320;2022-08-25T07:21:28;93016.13;;;24.64;64.95
39789;BME280;25478;42.626;23.320;2022-08-25T07:23:54;93025.00;;;24.70;64.14
39789;BME280;25478;42.626;23.320;2022-08-25T07:26:31;93022.63;;;24.57;64.06
39789;BME280;25478;42.626;23.320;2022-08-25T07:29:09;93015.84;;;24.32;64.75
39789;BME280;25478;42.626;23.320;2022-08-25T07:31:42;93021.81;;;24.27;64.56
39789;BME280;25478;42.626;23.320;2022-08-25T07:34:08;93021.53;;;24.25;65.60
39789;BME280;25478;42.626;23.320;2022-08-25T07:37:03;93021.88;;;24.42;65.73
39789;BME280;25478;42.626;23.320;2022-08-25T07:39:35;93018.34;;;24.65;65.75
39789;BME280;25478;42.626;23.320;2022-08-25T07:42:07;93020.63;;;24.87;63.30
39789;BME280;25478;42.626;23.320;2022-08-25T07:44:40;93027.69;;;24.99;62.62
39789;BME280;25478;42.626;23.320;2022-08-25T07:47:05;93028.13;;;25.13;63.06
39789;BME280;25478;42.626;23.320;2022-08-25T07:49:38;93028.59;;;25.26;62.45
39789;BME280;25478;42.626;23.320;2022-08-25T07:52:10;93014.09;;;25.23;61.64
39789;BME280;25478;42.626;23.320;2022-08-25T07:54:42;93019.13;;;25.16;61.89
39789;BME280;25478;42.626;23.320;2022-08-25T07:57:14;93003.38;;;25.09;61.95
39789;BME280;25478;42.626;23.320;2022-08-25T07:59:46;93025.88;;;25.26;61.17
39789;BME280;25478;42.626;23.320;2022-08-25T08:02:18;93025.97;;;25.32;60.05
39789;BME280;25478;42.626;23.320;2022-08-25T08:04:51;93009.06;;;25.31;59.58
39789;BME280;25478;42.626;23.320;2022-08-25T08:07:26;93025.38;;;25.42;59.80
39789;BME280;25478;42.626;23.320;2022-08-25T08:09:58;93010.44;;;25.41;59.34
39789;BME280;25478;42.626;23.320;2022-08-25T08:12:30;93023.84;;;25.56;59.07
39789;BME280;25478;42.626;23.320;2022-08-25T08:15:02;93022.09;;;25.53;60.02
39789;BME280;25478;42.626;23.320;2022-08-25T08:17:28;93015.94;;;25.52;60.32
39789;BME280;25478;42.626;23.320;2022-08-25T08:20:00;93012.13;;;25.59;59.55
39789;BME280;25478;42.626;23.320;2022-08-25T08:22:32;92998.38;;;25.57;59.63
39789;BME280;25478;42.626;23.320;2022-08-25T08:25:05;92999.66;;;25.62;58.74
39789;BME280;25478;42.626;23.320;2022-08-25T08:27:38;92992.66;;;25.49;58.21
39789;BME280;25478;42.626;23.320;2022-08-25T08:30:11;93003.03;;;25.57;58.14
39789;BME280;25478;42.626;23.320;2022-08-25T08:32:43;93001.75;;;25.52;57.62
39789;BME280;25478;42.626;23.320;2022-08-25T08:35:15;93000.03;;;25.54;57.60
39789;BME280;25478;42.626;23.320;2022-08-25T08:37:49;93002.91;;;25.66;56.42
39789;BME280;25478;42.626;23.320;2022-08-25T08:40:21;92999.53;;;25.71;55.51
39789;BME280;25478;42.626;23.320;2022-08-25T08:43:07;92989.34;;;25.60;55.51
39789;BME280;25478;42.626;23.320;2022-08-25T08:45:50;93006.13;;;25.49;56.13
39789;BME280;25478;42.626;23.320;2022-08-25T08:51:34;92995.72;;;25.63;56.03
39789;BME280;25478;42.626;23.320;2022-08-25T08:54:18;92997.03;;;25.67;56.14
39789;BME280;25478;42.626;23.320;2022-08-25T08:57:07;92978.81;;;25.62;56.69
39789;BME280;25478;42.626;23.320;2022-08-25T08:59:48;92996.28;;;25.67;57.04
39789;BME280;25478;42.626;23.320;2022-08-25T09:02:28;92996.13;;;25.55;57.31
39789;BME280;25478;42.626;23.320;2022-08-25T09:05:06;93003.25;;;25.38;57.22
39789;BME280;25478;42.626;23.320;2022-08-25T09:07:52;93006.47;;;25.22;57.98
39789;BME280;25478;42.626;23.320;2022-08-25T09:10:31;93005.69;;;25.16;57.82
39789;BME280;25478;42.626;23.320;2022-08-25T09:15:58;92993.13;;;25.13;57.40
39789;BME280;25478;42.626;23.320;2022-08-25T09:21:41;92993.44;;;25.35;55.42
39789;BME280;25478;42.626;23.320;2022-08-25T09:24:42;92989.59;;;25.42;54.73
39789;BME280;25478;42.626;23.320;2022-08-25T09:30:05;92991.50;;;25.56;53.33
39789;BME280;25478;42.626;23.320;2022-08-25T09:32:41;92979.34;;;25.46;53.36
39789;BME280;25478;42.626;23.320;2022-08-25T09:35:20;92996.59;;;25.54;53.28
39789;BME280;25478;42.626;23.320;2022-08-25T09:38:01;92990.09;;;25.61;53.37
39789;BME280;25478;42.626;23.320;2022-08-25T09:40:37;92993.84;;;25.69;52.82
39789;BME280;25478;42.626;23.320;2022-08-25T09:48:55;92993.88;;;25.48;53.87
39789;BME280;25478;42.626;23.320;2022-08-25T09:51:30;92989.34;;;25.40;53.98
39789;BME280;25478;42.626;23.320;2022-08-25T09:56:57;93007.25;;;25.22;54.12
39789;BME280;25478;42.626;23.320;2022-08-25T09:59:33;92997.78;;;25.12;53.82
39789;BME280;25478;42.626;23.320;2022-08-25T10:02:03;93002.69;;;25.14;53.75
39789;BME280;25478;42.626;23.320;2022-08-25T10:04:38;93000.19;;;25.10;53.98
39789;BME280;25478;42.626;23.320;2022-08-25T10:09:53;93002.16;;;25.10;52.90
39789;BME280;25478;42.626;23.320;2022-08-25T10:12:35;92993.59;;;24.96;53.20
39789;BME280;25478;42.626;23.320;2022-08-25T10:15:19;93005.03;;;24.91;53.11
39789;BME280;25478;42.626;23.320;2022-08-25T10:17:52;93002.47;;;24.82;53.35
39789;BME280;25478;42.626;23.320;2022-08-25T10:20:26;93002.56;;;24.73;53.50
39789;BME280;25478;42.626;23.320;2022-08-25T10:23:12;93008.97;;;24.61;53.24
39789;BME280;25478;42.626;23.320;2022-08-25T10:25:47;93003.88;;;24.48;53.42
39789;BME280;25478;42.626;23.320;2022-08-25T10:31:24;92997.47;;;24.46;54.26
39789;BME280;25478;42.626;23.320;2022-08-25T10:34:11;92994.31;;;24.47;54.13
39789;BME280;25478;42.626;23.320;2022-08-25T10:37:22;92990.22;;;24.52;54.71
39789;BME280;25478;42.626;23.320;2022-08-25T10:40:14;92985.69;;;24.73;53.51
39789;BME280;25478;42.626;23.320;2022-08-25T10:43:04;92984.41;;;24.88;52.23
39789;BME280;25478;42.626;23.320;2022-08-25T10:51:32;92974.47;;;25.09;52.18
39789;BME280;25478;42.626;23.320;2022-08-25T10:54:31;92966.84;;;25.22;51.66
39789;BME280;25478;42.626;23.320;2022-08-25T10:57:50;92972.44;;;25.39;50.99
39789;BME280;25478;42.626;23.320;2022-08-25T11:00:34;92971.94;;;25.61;49.14
39789;BME280;25478;42.626;23.320;2022-08-25T11:06:11;92953.31;;;25.78;47.87
39789;BME280;25478;42.626;23.320;2022-08-25T11:08:59;92947.72;;;25.81;47.25
39789;BME280;25478;42.626;23.320;2022-08-25T11:11:47;92960.16;;;25.99;47.23
39789;BME280;25478;42.626;23.320;2022-08-25T11:14:35;92933.81;;;26.15;46.91
39789;BME280;25478;42.626;23.320;2022-08-25T11:20:00;92936.06;;;26.48;47.00
39789;BME280;25478;42.626;23.320;2022-08-25T11:22:41;92936.13;;;26.53;47.72
39789;BME280;25478;42.626;23.320;2022-08-25T11:25:21;92930.69;;;26.48;47.76
39789;BME280;25478;42.626;23.320;2022-08-25T11:30:34;92921.41;;;26.54;47.32
39789;BME280;25478;42.626;23.320;2022-08-25T11:32:59;92926.91;;;26.65;47.00
39789;BME280;25478;42.626;23.320;2022-08-25T11:35:36;92922.06;;;26.75;47.62
39789;BME280;25478;42.626;23.320;2022-08-25T11:51:32;92913.72;;;26.16;47.93
39789;BME280;25478;42.626;23.320;2022-08-25T11:56:53;92901.03;;;25.96;48.50
39789;BME280;25478;42.626;23.320;2022-08-25T12:13:50;92899.50;;;26.47;47.75
39789;BME280;25478;42.626;23.320;2022-08-25T12:30:25;92906.06;;;26.08;47.61
39789;BME280;25478;42.626;23.320;2022-08-25T12:36:02;92905.00;;;26.00;47.71
39789;BME280;25478;42.626;23.320;2022-08-25T12:38:43;92904.75;;;25.98;48.02
39789;BME280;25478;42.626;23.320;2022-08-25T12:41:25;92897.59;;;25.95;47.68
39789;BME280;25478;42.626;23.320;2022-08-25T12:49:44;92898.91;;;26.05;47.50
39789;BME280;25478;42.626;23.320;2022-08-25T12:52:22;92899.75;;;25.91;47.52
39789;BME280;25478;42.626;23.320;2022-08-25T12:55:02;92905.25;;;25.76;47.34
39789;BME280;25478;42.626;23.320;2022-08-25T12:57:45;92903.09;;;25.60;47.73
39789;BME280;25478;42.626;23.320;2022-08-25T13:00:25;92908.56;;;25.45;47.92
39789;BME280;25478;42.626;23.320;2022-08-25T13:11:40;92907.06;;;25.44;48.86
39789;BME280;25478;42.626;23.320;2022-08-25T13:14:28;92906.88;;;25.48;49.55
39789;BME280;25478;42.626;23.320;2022-08-25T13:17:06;92913.03;;;25.48;48.73
39789;BME280;25478;42.626;23.320;2022-08-25T13:19:39;92917.94;;;25.50;48.32
39789;BME280;25478;42.626;23.320;2022-08-25T13:22:13;92900.94;;;25.44;48.13
39789;BME280;25478;42.626;23.320;2022-08-25T13:24:47;92895.50;;;25.38;48.16
39789;BME280;25478;42.626;23.320;2022-08-25T13:27:26;92909.50;;;25.42;48.04
39789;BME280;25478;42.626;23.320;2022-08-25T13:29:59;92910.91;;;25.38;48.49
39789;BME280;25478;42.626;23.320;2022-08-25T13:32:34;92910.66;;;25.36;48.30
39789;BME280;25478;42.626;23.320;2022-08-25T13:35:11;92911.13;;;25.34;47.88
39789;BME280;25478;42.626;23.320;2022-08-25T13:37:45;92912.75;;;25.26;48.46
39789;BME280;25478;42.626;23.320;2022-08-25T13:40:24;92913.97;;;25.25;48.66
39789;BME280;25478;42.626;23.320;2022-08-25T13:42:59;92908.09;;;25.26;49.22
39789;BME280;25478;42.626;23.320;2022-08-25T13:45:40;92908.09;;;25.26;50.02
39789;BME280;25478;42.626;23.320;2022-08-25T13:48:39;92907.09;;;25.24;49.77
39789;BME280;25478;42.626;23.320;2022-08-25T13:53:56;92899.72;;;25.04;49.87
39789;BME280;25478;42.626;23.320;2022-08-25T13:56:29;92900.56;;;24.95;49.66
39789;BME280;25478;42.626;23.320;2022-08-25T13:59:04;92897.41;;;24.97;49.24
39789;BME280;25478;42.626;23.320;2022-08-25T14:01:46;92903.16;;;25.05;48.90
39789;BME280;25478;42.626;23.320;2022-08-25T14:04:28;92906.59;;;25.05;48.88
39789;BME280;25478;42.626;23.320;2022-08-25T14:07:13;92905.03;;;24.98;49.02
39789;BME280;25478;42.626;23.320;2022-08-25T14:12:42;92908.41;;;24.79;49.82
39789;BME280;25478;42.626;23.320;2022-08-25T14:17:44;92904.75;;;24.61;50.11
39789;BME280;25478;42.626;23.320;2022-08-25T14:20:26;92903.47;;;24.57;49.72
39789;BME280;25478;42.626;23.320;2022-08-25T14:23:09;92908.75;;;24.51;49.90
39789;BME280;25478;42.626;23.320;2022-08-25T14:25:43;92904.50;;;24.45;49.57
39789;BME280;25478;42.626;23.320;2022-08-25T14:28:17;92906.44;;;24.44;49.85
39789;BME280;25478;42.626;23.320;2022-08-25T14:31:20;92903.00;;;24.43;50.25
39789;BME280;25478;42.626;23.320;2022-08-25T14:34:03;92900.06;;;24.41;50.82
39789;BME280;25478;42.626;23.320;2022-08-25T14:36:36;92901.66;;;24.33;49.29
39789;BME280;25478;42.626;23.320;2022-08-25T14:39:09;92901.44;;;24.22;49.40
39789;BME280;25478;42.626;23.320;2022-08-25T14:41:42;92893.75;;;24.15;49.49
39789;BME280;25478;42.626;23.320;2022-08-25T14:44:17;92904.88;;;24.08;49.53
39789;BME280;25478;42.626;23.320;2022-08-25T14:46:54;92903.88;;;24.05;50.81
39789;BME280;25478;42.626;23.320;2022-08-25T14:49:29;92896.97;;;24.04;50.88
39789;BME280;25478;42.626;23.320;2022-08-25T14:52:18;92894.13;;;24.08;50.98
39789;BME280;25478;42.626;23.320;2022-08-25T14:54:51;92893.91;;;24.11;51.08
39789;BME280;25478;42.626;23.320;2022-08-25T14:57:24;92894.22;;;24.13;50.88
39789;BME280;25478;42.626;23.320;2022-08-25T14:59:57;92896.91;;;24.13;50.88
39789;BME280;25478;42.626;23.320;2022-08-25T15:02:39;92894.50;;;24.15;50.52
39789;BME280;25478;42.626;23.320;2022-08-25T15:05:14;92895.97;;;24.17;50.70
39789;BME280;25478;42.626;23.320;2022-08-25T15:07:48;92906.81;;;24.22;51.49
39789;BME280;25478;42.626;23.320;2022-08-25T15:10:39;92901.25;;;24.26;51.21
39789;BME280;25478;42.626;23.320;2022-08-25T15:13:11;92905.41;;;24.27;50.44
39789;BME280;25478;42.626;23.320;2022-08-25T15:15:39;92909.53;;;24.22;49.74
39789;BME280;25478;42.626;23.320;2022-08-25T15:18:15;92911.38;;;24.16;49.82
39789;BME280;25478;42.626;23.320;2022-08-25T15:20:48;92886.88;;;23.99;50.78
39789;BME280;25478;42.626;23.320;2022-08-25T15:23:21;92909.03;;;24.09;51.70